createdAt,value
2018-10-19T00:01:16.074Z,101863.14
2018-10-19T00:03:44.643Z,101869.68
2018-10-19T00:06:13.534Z,101864.48
2018-10-19T00:08:42.119Z,101861.03
2018-10-19T00:11:10.657Z,101866.30
2018-10-19T00:13:39.226Z,101864.13
2018-10-19T00:16:07.714Z,101869.36
2018-10-19T00:18:36.724Z,101874.14
2018-10-19T00:21:05.790Z,101871.97
2018-10-19T00:23:34.706Z,101872.89
2018-10-19T00:26:03.194Z,101866.42
2018-10-19T00:28:32.239Z,101882.96
2018-10-19T00:31:00.768Z,101867.35
2018-10-19T00:33:29.498Z,101866.48
2018-10-19T00:35:57.962Z,101866.48
2018-10-19T00:38:26.548Z,101870.44
2018-10-19T00:40:55.237Z,101869.59
2018-10-19T00:43:23.696Z,101787.65
2018-10-19T00:45:52.502Z,101873.55
2018-10-19T00:48:21.365Z,101868.78
2018-10-19T00:50:50.054Z,101873.56
2018-10-19T00:53:18.514Z,101879.69
2018-10-19T00:55:47.052Z,101875.38
2018-10-19T00:58:15.606Z,101876.70
2018-10-19T01:00:44.203Z,101879.30
2018-10-19T01:03:13.015Z,101884.05
2018-10-19T01:05:41.889Z,101876.66
2018-10-19T01:08:11.040Z,101877.96
2018-10-19T01:10:39.503Z,101881.45
2018-10-19T01:13:08.338Z,101875.81
2018-10-19T01:15:37.669Z,101874.09
2018-10-19T01:18:06.372Z,101873.64
2018-10-19T01:20:34.886Z,101875.83
2018-10-19T01:23:03.421Z,101871.47
2018-10-19T01:25:32.046Z,101884.09
2018-10-19T01:28:00.510Z,101887.60
2018-10-19T01:30:29.454Z,101887.22
2018-10-19T01:32:58.061Z,101881.57
2018-10-19T01:35:26.580Z,101885.98
2018-10-19T01:37:55.261Z,101883.80
2018-10-19T01:40:23.862Z,101885.13
2018-10-19T01:42:52.486Z,101880.80
2018-10-19T01:45:21.026Z,101877.31
2018-10-19T01:47:49.780Z,101778.45
2018-10-19T01:50:18.318Z,101875.99
2018-10-19T01:52:46.998Z,101879.91
2018-10-19T01:55:15.474Z,101882.52
2018-10-19T01:57:44.050Z,101879.89
2018-10-19T02:00:12.568Z,101878.59
2018-10-19T02:02:41.030Z,101885.11
2018-10-19T02:05:09.913Z,101872.94
2018-10-19T02:07:38.386Z,101869.03
2018-10-19T02:10:07.499Z,101874.70
2018-10-19T02:12:36.090Z,101866.00
2018-10-19T02:15:04.860Z,101863.39
2018-10-19T02:17:33.253Z,101866.84
2018-10-19T02:20:01.823Z,101868.14
2018-10-19T02:22:30.483Z,101869.43
2018-10-19T02:24:58.986Z,101874.67
2018-10-19T02:27:27.570Z,101863.80
2018-10-19T02:29:56.127Z,101865.53
2018-10-19T02:32:24.900Z,101872.92
2018-10-19T02:34:53.528Z,101875.94
2018-10-19T02:37:22.122Z,101871.13
2018-10-19T02:39:50.655Z,101873.31
2018-10-19T02:42:19.171Z,101873.31
2018-10-19T02:44:47.958Z,101825.14
2018-10-19T02:47:16.602Z,101869.37
2018-10-19T02:49:45.397Z,101867.17
2018-10-19T02:52:13.872Z,101864.11
2018-10-19T02:54:42.502Z,101868.91
2018-10-19T02:57:11.137Z,101866.70
2018-10-19T02:59:40.249Z,101861.48
2018-10-19T03:02:09.021Z,101850.55
2018-10-19T03:04:37.603Z,101848.72
2018-10-19T03:07:07.204Z,101852.17
2018-10-19T03:09:35.691Z,101848.11
2018-10-19T03:12:04.419Z,101850.14
2018-10-19T03:14:32.883Z,101844.41
2018-10-19T03:17:01.524Z,101840.02
2018-10-19T03:19:30.038Z,101839.11
2018-10-19T03:21:58.602Z,101840.80
2018-10-19T03:24:27.322Z,101847.77
2018-10-19T03:26:55.886Z,101838.56
2018-10-19T03:29:24.577Z,101839.84
2018-10-19T03:31:53.155Z,101845.91
2018-10-19T03:34:21.882Z,101838.88
2018-10-19T03:36:50.344Z,101841.02
2018-10-19T03:39:18.938Z,101835.36
2018-10-19T03:41:47.481Z,101836.70
2018-10-19T03:44:15.930Z,101835.44
2018-10-19T03:46:44.654Z,101841.56
2018-10-19T03:49:13.206Z,101836.36
2018-10-19T03:51:41.854Z,101836.40
2018-10-19T03:54:10.306Z,101827.68
2018-10-19T03:56:38.932Z,101828.16
2018-10-19T03:59:07.595Z,101835.14
2018-10-19T04:01:36.163Z,101840.36
2018-10-19T04:04:05.539Z,101762.88
2018-10-19T04:06:34.121Z,101841.73
2018-10-19T04:09:02.677Z,101836.94
2018-10-19T04:11:31.224Z,101844.42
2018-10-19T04:13:59.893Z,101838.34
2018-10-19T04:16:28.454Z,101834.89
2018-10-19T04:18:57.143Z,101842.30
2018-10-19T04:21:25.836Z,101821.91
2018-10-19T04:23:54.307Z,101837.51
2018-10-19T04:26:22.990Z,101840.98
2018-10-19T04:28:51.470Z,101838.41
2018-10-19T04:31:20.170Z,101839.30
2018-10-19T04:33:48.655Z,101841.05
2018-10-19T04:36:17.114Z,101841.53
2018-10-19T04:38:45.610Z,101844.59
2018-10-19T04:41:14.206Z,101846.78
2018-10-19T04:43:43.710Z,101803.46
2018-10-19T04:46:12.170Z,101842.86
2018-10-19T04:48:40.978Z,101846.30
2018-10-19T04:51:09.625Z,101845.89
2018-10-19T04:53:38.498Z,101840.27
2018-10-19T04:56:07.110Z,101844.61
2018-10-19T04:58:35.639Z,101836.32
2018-10-19T05:01:04.311Z,101838.09
2018-10-19T05:03:32.874Z,101842.91
2018-10-19T05:06:02.242Z,101829.03
2018-10-19T05:08:30.666Z,101830.77
2018-10-19T05:10:59.523Z,101823.77
2018-10-19T05:13:28.035Z,101815.12
2018-10-19T05:15:56.816Z,101822.91
2018-10-19T05:18:25.666Z,101818.52
2018-10-19T05:20:54.578Z,101821.08
2018-10-19T05:23:23.110Z,101802.02
2018-10-19T05:25:53.538Z,101825.38
2018-10-19T05:28:22.094Z,101824.10
2018-10-19T05:30:51.223Z,101818.84
2018-10-19T05:33:19.822Z,101808.94
2018-10-19T05:35:48.420Z,101823.74
2018-10-19T05:38:17.146Z,101824.22
2018-10-19T05:40:45.814Z,101825.53
2018-10-19T05:43:14.715Z,101826.84
2018-10-19T05:45:43.290Z,101828.61
2018-10-19T05:48:11.878Z,101836.47
2018-10-19T05:50:40.448Z,101829.89
2018-10-19T05:53:08.966Z,101840.33
2018-10-19T05:55:37.722Z,101852.52
2018-10-19T05:58:06.886Z,101846.00
2018-10-19T06:00:35.702Z,101854.33
2018-10-19T06:03:04.202Z,101850.47
2018-10-19T06:05:33.071Z,101859.69
2018-10-19T06:08:01.594Z,101863.59
2018-10-19T06:10:30.272Z,101853.05
2018-10-19T06:12:58.850Z,101860.75
2018-10-19T06:15:28.487Z,101851.18
2018-10-19T06:17:57.970Z,101861.55
2018-10-19T06:20:26.590Z,101854.58
2018-10-19T06:22:56.276Z,101866.30
2018-10-19T06:25:25.010Z,101870.58
2018-10-19T06:27:54.518Z,101871.38
2018-10-19T06:30:24.138Z,101868.22
2018-10-19T06:32:54.755Z,101869.47
2018-10-19T06:35:24.924Z,101866.81
2018-10-19T06:37:53.745Z,101874.63
2018-10-19T06:40:24.278Z,101874.98
2018-10-19T06:42:52.979Z,101877.98
2018-10-19T06:45:23.085Z,101883.60
2018-10-19T06:47:52.386Z,101878.76
2018-10-19T06:50:20.985Z,101880.50
2018-10-19T06:52:52.240Z,101873.47
2018-10-19T06:55:20.861Z,101878.67
2018-10-19T06:57:51.478Z,101884.73
2018-10-19T07:00:22.489Z,101881.20
2018-10-19T07:02:52.238Z,101877.66
2018-10-19T07:05:21.979Z,101791.04
2018-10-19T07:07:51.579Z,101890.58
2018-10-19T07:10:21.239Z,101884.51
2018-10-19T07:12:50.105Z,101900.16
2018-10-19T07:15:18.985Z,101803.98
2018-10-19T07:17:47.474Z,101896.71
2018-10-19T07:20:16.422Z,101893.98
2018-10-19T07:22:44.957Z,101889.97
2018-10-19T07:25:13.551Z,101892.07
2018-10-19T07:27:42.742Z,101898.52
2018-10-19T07:30:11.322Z,101897.99
2018-10-19T07:32:40.099Z,101824.30
2018-10-19T07:35:09.030Z,101897.86
2018-10-19T07:37:38.357Z,101901.28
2018-10-19T07:40:07.306Z,101895.95
2018-10-19T07:42:36.344Z,101898.04
2018-10-19T07:45:05.079Z,101899.27
2018-10-19T07:47:33.696Z,101900.45
2018-10-19T07:50:02.285Z,101905.13
2018-10-19T07:52:30.919Z,101898.88
2018-10-19T07:54:59.722Z,101904.86
2018-10-19T07:57:28.354Z,101906.50
2018-10-19T07:59:57.700Z,101903.37
2018-10-19T08:02:26.188Z,101867.41
2018-10-19T08:04:54.882Z,101912.55
2018-10-19T08:07:23.431Z,101900.25
2018-10-19T08:09:52.458Z,101913.32
2018-10-19T08:12:21.058Z,101899.22
2018-10-19T08:14:49.586Z,101903.87
2018-10-19T08:17:18.674Z,101911.58
2018-10-19T08:19:47.168Z,101903.12
2018-10-19T08:22:15.793Z,101902.11
2018-10-19T08:24:44.662Z,101899.36
2018-10-19T08:27:13.496Z,101902.34
2018-10-19T08:29:42.038Z,101903.51
2018-10-19T08:32:10.592Z,101898.95
2018-10-19T08:34:39.442Z,101894.26
2018-10-19T08:37:07.930Z,101902.73
2018-10-19T08:39:36.614Z,101905.14
2018-10-19T08:42:06.050Z,101897.89
2018-10-19T08:44:34.675Z,101889.12
2018-10-19T08:47:03.303Z,101905.45
2018-10-19T08:49:31.918Z,101910.51
2018-10-19T08:52:00.836Z,101907.66
2018-10-19T08:54:29.414Z,101907.31
2018-10-19T08:56:58.206Z,101907.05
2018-10-19T08:59:26.791Z,101908.06
2018-10-19T09:01:55.538Z,101906.30
2018-10-19T09:04:24.205Z,101901.55
2018-10-19T09:06:52.893Z,101900.03
2018-10-19T09:09:21.372Z,101904.74
2018-10-19T09:11:49.922Z,101902.86
2018-10-19T09:15:01.170Z,101886.01
2018-10-19T09:17:29.796Z,101888.92
2018-10-19T09:19:58.489Z,101885.28
2018-10-19T09:22:26.998Z,101886.43
2018-10-19T09:24:55.514Z,101882.52
2018-10-19T09:27:23.971Z,101882.92
2018-10-19T09:29:52.876Z,101878.91
2018-10-19T09:32:21.543Z,101871.11
2018-10-19T09:34:50.331Z,101875.39
2018-10-19T09:37:18.996Z,101881.56
2018-10-19T09:39:47.522Z,101870.22
2018-10-19T09:42:16.071Z,101853.55
2018-10-19T09:44:44.550Z,101873.95
2018-10-19T09:47:13.571Z,101876.64
2018-10-19T09:49:42.032Z,101870.13
2018-10-19T09:52:10.641Z,101859.23
2018-10-19T09:54:39.198Z,101862.78
2018-10-19T09:57:07.960Z,101856.67
2018-10-19T09:59:36.446Z,101860.70
2018-10-19T10:02:05.328Z,101853.77
2018-10-19T10:04:34.662Z,101854.36
2018-10-19T10:07:03.207Z,101859.31
2018-10-19T10:09:32.497Z,101859.87
2018-10-19T10:12:00.966Z,101852.41
2018-10-19T10:14:29.814Z,101852.72
2018-10-19T10:16:58.356Z,101848.82
2018-10-19T10:19:27.206Z,101846.20
2018-10-19T10:21:55.788Z,101852.89
2018-10-19T10:24:24.473Z,101858.45
2018-10-19T10:26:53.022Z,101841.55
2018-10-19T10:29:21.601Z,101846.34
2018-10-19T10:31:50.366Z,101846.87
2018-10-19T10:34:18.874Z,101852.17
2018-10-19T10:36:47.605Z,101845.16
2018-10-19T10:39:16.134Z,101844.35
2018-10-19T10:41:44.871Z,101840.86
2018-10-19T10:44:13.395Z,101837.09
2018-10-19T10:46:41.958Z,101842.39
2018-10-19T10:49:11.668Z,101840.55
2018-10-19T10:51:40.066Z,101844.78
2018-10-19T10:54:08.830Z,101842.52
2018-10-19T10:56:37.307Z,101842.01
2018-10-19T10:59:06.191Z,101842.01
2018-10-19T11:01:34.777Z,101844.66
2018-10-19T11:04:03.395Z,101842.95
2018-10-19T11:06:31.926Z,101847.37
2018-10-19T11:09:00.438Z,101843.20
2018-10-19T11:11:30.014Z,101842.95
2018-10-19T11:13:58.482Z,101847.19
2018-10-19T11:16:27.379Z,101846.18
2018-10-19T11:18:55.855Z,101850.36
2018-10-19T11:21:24.642Z,101853.13
2018-10-19T11:23:53.218Z,101843.78
2018-10-19T11:26:23.245Z,101846.86
2018-10-19T11:28:51.781Z,101844.92
2018-10-19T11:31:20.455Z,101855.52
2018-10-19T11:33:49.682Z,101740.09
2018-10-19T11:36:18.194Z,101844.10
2018-10-19T11:38:47.086Z,101805.49
2018-10-19T11:41:15.698Z,101841.05
2018-10-19T11:43:44.538Z,101840.86
2018-10-19T11:46:13.065Z,101845.97
2018-10-19T11:48:41.605Z,101845.67
2018-10-19T11:51:10.074Z,101852.73
2018-10-19T11:53:38.699Z,101845.59
2018-10-19T11:56:07.626Z,101839.30
2018-10-19T11:58:36.114Z,101850.42
2018-10-19T12:01:05.329Z,101842.83
2018-10-19T12:03:34.054Z,101842.08
2018-10-19T12:06:02.615Z,101838.85
2018-10-19T12:08:31.282Z,101844.53
2018-10-19T12:10:59.798Z,101832.59
2018-10-19T12:13:28.373Z,101837.78
2018-10-19T12:15:57.000Z,101836.20
2018-10-19T12:18:26.723Z,101835.65
2018-10-19T12:20:55.322Z,101833.55
2018-10-19T12:23:24.418Z,101774.58
2018-10-19T12:25:53.090Z,101817.84
2018-10-19T12:28:22.173Z,101821.81
2018-10-19T12:30:50.755Z,101815.41
2018-10-19T12:33:19.513Z,101814.34
2018-10-19T12:35:48.070Z,101820.30
2018-10-19T12:38:16.666Z,101818.33
2018-10-19T12:40:45.300Z,101751.92
2018-10-19T12:43:13.891Z,101808.24
2018-10-19T12:46:52.125Z,101808.25
2018-10-19T12:49:22.358Z,101816.39
2018-10-19T12:51:50.903Z,101819.23
2018-10-19T12:54:19.561Z,101816.33
2018-10-19T12:56:48.080Z,101806.79
2018-10-19T12:59:16.674Z,101807.05
2018-10-19T13:01:45.563Z,101814.26
2018-10-19T13:04:14.116Z,101808.09
2018-10-19T13:06:43.034Z,101802.14
2018-10-19T13:09:12.800Z,101804.66
2018-10-19T13:11:41.604Z,101815.51
2018-10-19T13:14:10.117Z,101801.71
2018-10-19T13:16:38.809Z,101801.59
2018-10-19T13:19:07.388Z,101803.33
2018-10-19T13:21:35.938Z,101797.16
2018-10-19T13:24:05.057Z,101791.80
2018-10-19T13:28:56.157Z,101784.17
2018-10-19T13:31:25.350Z,101780.00
2018-10-19T13:33:53.935Z,101784.79
2018-10-19T13:36:22.549Z,101778.68
2018-10-19T13:38:51.137Z,101767.27
2018-10-19T13:41:19.598Z,101769.53
2018-10-19T13:43:48.281Z,101774.02
2018-10-19T13:46:17.154Z,101772.89
2018-10-19T13:48:46.097Z,101700.84
2018-10-19T13:51:14.762Z,101765.52
2018-10-19T13:53:43.484Z,101766.45
2018-10-19T13:56:12.594Z,101758.70
2018-10-19T13:58:41.323Z,101763.00
2018-10-19T14:01:09.966Z,101759.77
2018-10-19T14:03:38.556Z,101752.28
2018-10-19T14:06:07.162Z,101722.42
2018-10-19T14:08:36.414Z,101768.85
2018-10-19T14:11:05.546Z,101766.33
2018-10-19T14:13:34.089Z,101757.58
2018-10-19T14:16:03.029Z,101770.94
2018-10-19T14:18:31.502Z,101760.15
2018-10-19T14:21:00.684Z,101751.46
2018-10-19T14:23:29.380Z,101747.91
2018-10-19T14:25:58.075Z,101743.13
2018-10-19T14:28:26.628Z,101737.77
2018-10-19T14:30:55.179Z,101736.25
2018-10-19T14:33:24.180Z,101670.33
2018-10-19T14:35:52.562Z,101727.96
2018-10-19T14:38:21.544Z,101723.72
2018-10-19T14:40:50.026Z,101721.08
2018-10-19T14:43:18.737Z,101709.30
2018-10-19T14:45:47.386Z,101716.97
2018-10-19T14:48:16.018Z,101722.66
2018-10-19T14:50:44.742Z,101721.72
2018-10-19T14:53:13.385Z,101722.66
2018-10-19T14:55:42.221Z,101712.19
2018-10-19T14:58:10.718Z,101712.83
2018-10-19T15:00:39.683Z,101708.47
2018-10-19T15:03:08.216Z,101710.03
2018-10-19T15:05:36.858Z,101700.89
2018-10-19T15:08:05.468Z,101704.47
2018-10-19T15:10:34.214Z,101695.97
2018-10-19T15:13:02.722Z,101697.89
2018-10-19T15:15:31.262Z,101702.31
2018-10-19T15:18:00.123Z,101695.43
2018-10-19T15:20:28.818Z,101702.61
2018-10-19T15:22:57.464Z,101700.15
2018-10-19T15:25:25.954Z,101709.13
2018-10-19T15:27:54.620Z,101703.96
2018-10-19T15:30:23.373Z,101582.27
2018-10-19T15:32:51.755Z,101709.60
2018-10-19T15:35:20.601Z,101706.80
2018-10-19T15:37:49.144Z,101707.92
2018-10-19T15:40:17.974Z,101702.88
2018-10-19T15:42:46.534Z,101704.42
2018-10-19T15:45:15.072Z,101702.12
2018-10-19T15:47:43.652Z,101707.68
2018-10-19T15:50:12.138Z,101708.77
2018-10-19T15:52:40.923Z,101709.92
2018-10-19T15:55:09.447Z,101705.90
2018-10-19T15:57:38.314Z,101704.80
2018-10-19T16:00:08.852Z,101703.66
2018-10-19T16:02:37.648Z,101703.97
2018-10-19T16:05:06.550Z,101713.53
2018-10-19T16:07:35.220Z,101705.53
2018-10-19T16:10:03.910Z,101702.38
2018-10-19T16:12:32.398Z,101700.04
2018-10-19T16:15:01.715Z,101710.12
2018-10-19T16:17:30.243Z,101706.94
2018-10-19T16:19:59.059Z,101702.83
2018-10-19T16:22:27.673Z,101702.16
2018-10-19T16:24:56.840Z,101701.61
2018-10-19T16:27:25.588Z,101700.53
2018-10-19T16:29:54.133Z,101703.83
2018-10-19T16:32:22.773Z,101705.78
2018-10-19T16:34:51.292Z,101707.75
2018-10-19T16:37:19.888Z,101707.50
2018-10-19T16:39:48.437Z,101708.61
2018-10-19T16:42:17.322Z,101702.20
2018-10-19T16:44:45.717Z,101702.69
2018-10-19T16:47:14.184Z,101708.48
2018-10-19T16:49:42.974Z,101712.91
2018-10-19T16:52:11.670Z,101716.87
2018-10-19T16:54:40.094Z,101712.04
2018-10-19T16:57:08.657Z,101714.63
2018-10-19T16:59:39.698Z,101711.11
2018-10-19T17:02:08.849Z,101712.00
2018-10-19T17:04:37.392Z,101715.50
2018-10-19T17:07:06.307Z,101722.05
2018-10-19T17:09:35.185Z,101724.28
2018-10-19T17:12:03.778Z,101723.36
2018-10-19T17:14:32.540Z,101719.02
2018-10-19T17:17:01.139Z,101727.31
2018-10-19T17:19:29.646Z,101724.68
2018-10-19T17:21:58.256Z,101717.27
2018-10-19T17:24:26.836Z,101719.02
2018-10-19T17:26:55.547Z,101711.55
2018-10-19T17:29:24.082Z,101712.91
2018-10-19T17:31:52.772Z,101666.38
2018-10-19T17:34:21.317Z,101715.46
2018-10-19T17:36:49.931Z,101713.75
2018-10-19T17:39:18.586Z,101714.54
2018-10-19T17:41:47.112Z,101715.86
2018-10-19T17:44:16.842Z,101662.05
2018-10-19T17:46:45.426Z,101722.45
2018-10-19T17:49:14.228Z,101670.55
2018-10-19T17:51:42.770Z,101726.35
2018-10-19T17:54:11.391Z,101713.66
2018-10-19T17:56:39.897Z,101714.54
2018-10-19T17:59:08.482Z,101725.08
2018-10-19T18:01:37.166Z,101723.28
2018-10-19T18:04:06.166Z,101725.52
2018-10-19T18:06:35.050Z,101720.24
2018-10-19T18:09:03.697Z,101722.00
2018-10-19T18:11:33.287Z,101718.92
2018-10-19T18:14:01.722Z,101717.70
2018-10-19T18:16:30.567Z,101717.17
2018-10-19T18:18:59.118Z,101718.92
2018-10-19T18:21:27.938Z,101715.33
2018-10-19T18:23:56.506Z,101718.66
2018-10-19T18:26:25.278Z,101718.48
2018-10-19T18:28:55.031Z,101637.02
2018-10-19T18:31:23.498Z,101722.34
2018-10-19T18:33:52.398Z,101615.61
2018-10-19T18:36:20.861Z,101722.38
2018-10-19T18:38:49.637Z,101727.60
2018-10-19T18:41:18.202Z,101735.37
2018-10-19T18:43:46.890Z,101733.39
2018-10-19T18:46:15.554Z,101740.37
2018-10-19T18:48:44.075Z,101731.84
2018-10-19T18:51:12.827Z,101725.25
2018-10-19T18:53:41.330Z,101736.17
2018-10-19T18:56:10.346Z,101688.83
2018-10-19T18:58:38.874Z,101728.03
2018-10-19T19:01:07.588Z,101734.00
2018-10-19T19:03:36.497Z,101733.41
2018-10-19T19:06:05.390Z,101728.39
2018-10-19T19:08:33.938Z,101724.38
2018-10-19T19:11:02.783Z,101720.82
2018-10-19T19:13:32.886Z,101724.78
2018-10-19T19:16:01.713Z,101720.17
2018-10-19T19:18:30.550Z,101722.77
2018-10-19T19:20:59.082Z,101721.64
2018-10-19T19:23:27.758Z,101722.27
2018-10-19T19:26:01.746Z,101722.38
2018-10-19T19:28:30.318Z,101721.47
2018-10-19T19:30:58.818Z,101724.59
2018-10-19T19:33:32.971Z,101724.67
2018-10-19T19:36:01.692Z,101730.66
2018-10-19T19:38:30.277Z,101724.41
2018-10-19T19:41:04.008Z,101722.92
2018-10-19T19:43:32.477Z,101725.92
2018-10-19T19:46:01.322Z,101726.70
2018-10-19T19:48:35.413Z,101717.47
2018-10-19T19:51:03.909Z,101724.78
2018-10-19T19:53:32.521Z,101719.89
2018-10-19T19:56:01.110Z,101716.75
2018-10-19T19:58:29.646Z,101715.31
2018-10-19T20:00:58.474Z,101716.13
2018-10-19T20:03:27.043Z,101717.03
2018-10-19T20:05:55.854Z,101654.63
2018-10-19T20:08:24.391Z,101719.67
2018-10-19T20:10:53.059Z,101722.20
2018-10-19T20:13:21.527Z,101730.02
2018-10-19T20:15:50.018Z,101731.67
2018-10-19T20:18:19.378Z,101723.64
2018-10-19T20:20:47.934Z,101725.39
2018-10-19T20:23:16.705Z,101664.05
2018-10-19T20:25:45.263Z,101726.17
2018-10-19T20:28:14.185Z,101724.41
2018-10-19T20:30:42.689Z,101721.37
2018-10-19T20:33:11.343Z,101724.41
2018-10-19T20:35:39.922Z,101716.42
2018-10-19T20:38:08.406Z,101711.70
2018-10-19T20:40:37.930Z,101725.22
2018-10-19T20:43:06.745Z,101726.59
2018-10-19T20:45:35.526Z,101720.83
2018-10-19T20:48:04.173Z,101716.88
2018-10-19T20:50:33.064Z,101708.44
2018-10-19T20:53:01.650Z,101710.27
2018-10-19T20:55:30.315Z,101707.80
2018-10-19T20:57:58.815Z,101705.91
2018-10-19T21:00:27.383Z,101707.11
2018-10-19T21:02:56.823Z,101656.87
2018-10-19T21:05:25.291Z,101710.97
2018-10-19T21:07:54.116Z,101717.25
2018-10-19T21:10:22.655Z,101712.08
2018-10-19T21:12:51.418Z,101697.16
2018-10-19T21:15:20.014Z,101695.95
2018-10-19T21:17:48.538Z,101708.11
2018-10-19T21:20:17.282Z,101685.06
2018-10-19T21:22:45.751Z,101695.78
2018-10-19T21:25:14.592Z,101692.88
2018-10-19T21:27:43.069Z,101688.02
2018-10-19T21:30:12.590Z,101679.28
2018-10-19T21:32:41.221Z,101693.30
2018-10-19T21:35:09.963Z,101683.64
2018-10-19T21:37:38.624Z,101685.98
2018-10-19T21:40:07.192Z,101675.92
2018-10-19T21:42:35.666Z,101685.70
2018-10-19T21:45:04.378Z,101675.25
2018-10-19T21:47:34.049Z,101600.56
2018-10-19T21:50:02.639Z,101678.00
2018-10-19T21:52:31.562Z,101683.27
2018-10-19T21:55:00.070Z,101678.00
2018-10-19T21:57:28.710Z,101680.69
2018-10-19T21:59:57.265Z,101685.97
2018-10-19T22:02:25.878Z,101683.17
2018-10-19T22:04:54.560Z,101681.75
2018-10-19T22:07:23.221Z,101683.45
2018-10-19T22:09:51.871Z,101681.64
2018-10-19T22:12:20.379Z,101678.06
2018-10-19T22:14:49.271Z,101663.66
2018-10-19T22:17:17.734Z,101674.50
2018-10-19T22:19:46.286Z,101670.55
2018-10-19T22:22:14.780Z,101656.87
2018-10-19T22:24:43.341Z,101677.97
2018-10-19T22:27:12.913Z,101667.22
2018-10-19T22:29:41.392Z,101684.41
2018-10-19T22:32:10.190Z,101677.75
2018-10-19T22:34:38.721Z,101676.42
2018-10-19T22:37:07.335Z,101684.74
2018-10-19T22:39:35.810Z,101678.14
2018-10-19T22:42:04.666Z,101675.16
2018-10-19T22:44:33.714Z,101682.74
2018-10-19T22:47:02.306Z,101689.84
2018-10-19T22:49:31.078Z,101694.20
2018-10-19T22:51:59.530Z,101693.30
2018-10-19T22:54:28.605Z,101686.28
2018-10-19T22:56:57.126Z,101687.55
2018-10-19T22:59:25.755Z,101691.45
2018-10-19T23:01:54.353Z,101691.88
2018-10-19T23:04:22.902Z,101695.30
2018-10-19T23:06:52.006Z,101698.59
2018-10-19T23:09:20.598Z,101693.98
2018-10-19T23:11:49.514Z,101691.77
2018-10-19T23:14:18.038Z,101694.80
2018-10-19T23:16:46.678Z,101700.08
2018-10-19T23:19:15.164Z,101702.33
2018-10-19T23:21:43.715Z,101691.34
2018-10-19T23:24:12.278Z,101647.45
2018-10-19T23:26:40.953Z,101698.88
2018-10-19T23:29:10.557Z,101694.63
2018-10-19T23:31:39.164Z,101690.87
2018-10-19T23:34:07.828Z,101705.80
2018-10-19T23:36:36.510Z,101698.80
2018-10-19T23:39:07.718Z,101703.26
2018-10-19T23:41:36.336Z,101704.29
2018-10-19T23:44:05.110Z,101698.58
2018-10-19T23:46:33.665Z,101694.73
2018-10-19T23:49:02.342Z,101691.30
2018-10-19T23:51:30.868Z,101659.97
2018-10-19T23:53:59.344Z,101692.23
2018-10-19T23:56:28.258Z,101689.16
2018-10-19T23:58:56.874Z,101700.14
